Terminal Aerodrome Forecast
Issued by NWS

Home | Current Version | Previous Version | Text Only | Print | Product List | Glossary On
Versions: 1 2 3 4 5 6 7 8 9 10 11 12 13 14 15
000
FTUS43 KMQT 080525
TAFCMX
TAF
KCMX 080525Z 0806/0906 31017G26KT 1SM -SHSN BLSN OVC015
     FM081000 34018G25KT 2SM -SHSN BLSN OVC020
     FM090400 35013G22KT 1 1/2SM -SHSN OVC015
      AMD NOT SKED=

USA.gov is the U.S. government's official web portal to all federal, state and local government web resources and services.